Time;durP1;ratioP1;P1;durP2;ratioP2;P2;SDS_P1;SDS_P2;PMS_P1;PMS_P2;Temp;Humidity;BMP_temperature;BMP_pressure;BME280_temperature;BME280_humidity;BME280_pressure;Samples;Min_cycle;Max_cycle;Signal;HPM_P1;HPM_P2
2023/03/22 00:00:52;;;;;;;1.08;0.70;;;;;;;17.06;51.97;96519.44;10393052;28;20037;-34
2023/03/22 00:05:57;;;;;;;4.32;0.77;;;;;;;17.07;51.75;96518.59;10394936;28;20078;-33
2023/03/22 00:10:57;;;;;;;1.10;0.52;;;;;;;17.04;52.19;96520.28;10392502;28;20035;-33
2023/03/22 00:15:58;;;;;;;1.67;0.80;;;;;;;17.08;53.75;96520.28;10394361;28;20033;-33
2023/03/22 00:20:59;;;;;;;1.00;0.70;;;;;;;17.08;51.02;96524.53;10377919;28;20128;-33
2023/03/22 00:25:59;;;;;;;1.55;0.60;;;;;;;17.09;51.93;96521.16;10386556;28;20133;-37
2023/03/22 00:31:01;;;;;;;1.50;0.60;;;;;;;17.08;50.95;96519.47;10390045;28;20036;-33
2023/03/22 00:36:08;;;;;;;1.55;0.68;;;;;;;17.08;50.94;96511.88;10388680;28;20380;-35
2023/03/22 00:41:20;;;;;;;2.03;1.80;;;;;;;17.10;55.99;96500.06;10379577;28;20033;-35
2023/03/22 00:46:20;;;;;;;2.33;1.10;;;;;;;17.13;57.93;96495.00;10387753;28;20057;-33
2023/03/22 00:51:21;;;;;;;1.73;0.90;;;;;;;17.17;57.66;96494.19;10381964;28;20470;-34
2023/03/22 00:56:24;;;;;;;3.92;1.05;;;;;;;17.11;57.64;96487.44;10377874;28;20041;-33
2023/03/22 01:01:31;;;;;;;1.27;0.68;;;;;;;17.07;52.88;96482.38;10393120;28;20033;-35
2023/03/22 01:06:32;;;;;;;1.90;0.80;;;;;;;17.07;51.80;96473.09;10398620;28;20057;-33
2023/03/22 01:11:33;;;;;;;1.33;1.05;;;;;;;17.08;52.44;96468.88;10392817;28;20036;-34
2023/03/22 01:16:33;;;;;;;2.33;0.80;;;;;;;17.07;52.84;96462.97;10390545;28;20032;-33
2023/03/22 01:21:33;;;;;;;12.97;0.87;;;;;;;16.99;52.27;96453.69;10387087;28;20026;-35
2023/03/22 01:26:34;;;;;;;0.80;0.52;;;;;;;17.05;50.88;96454.53;10377719;28;20275;-33
2023/03/22 01:31:35;;;;;;;1.13;0.57;;;;;;;17.08;50.99;96461.28;10396884;28;20029;-33
2023/03/22 01:36:36;;;;;;;1.23;0.73;;;;;;;17.05;50.65;96453.69;10390241;28;20071;-36
2023/03/22 01:41:37;;;;;;;1.35;0.73;;;;;;;16.90;52.01;96425.88;10394861;28;20667;-33
2023/03/22 01:46:47;;;;;;;3.42;0.57;;;;;;;17.06;50.63;96445.28;10395952;28;20090;-33
2023/03/22 01:51:50;;;;;;;1.17;0.80;;;;;;;17.02;50.54;96448.63;10389852;28;20117;-39
2023/03/22 01:57:08;;;;;;;5.20;1.38;;;;;;;17.08;58.18;96448.66;10375232;28;20095;-33
2023/03/22 02:02:17;;;;;;;3.90;1.48;;;;;;;17.12;58.04;96443.59;10369767;28;20398;-33
2023/03/22 02:07:25;;;;;;;2.47;0.95;;;;;;;17.15;58.30;96440.22;10395107;28;20103;-34
2023/03/22 02:12:37;;;;;;;1.75;0.95;;;;;;;17.15;57.13;96440.22;10386845;28;20038;-33
2023/03/22 02:18:26;;;;;;;2.88;0.80;;;;;;;17.13;57.51;96440.22;10386052;28;20045;-32
2023/03/22 02:23:58;;;;;;;1.27;0.70;;;;;;;17.12;57.50;96440.22;10393503;28;20037;-33
2023/03/22 02:29:14;;;;;;;2.28;1.13;;;;;;;17.11;56.87;96444.44;10392133;28;20033;-34
2023/03/22 02:34:52;;;;;;;2.20;0.80;;;;;;;17.11;56.58;96438.53;10402836;28;20033;-34
2023/03/22 02:40:15;;;;;;;1.23;0.82;;;;;;;17.11;54.98;96428.41;10373338;28;20517;-34
2023/03/22 02:45:27;;;;;;;1.90;0.70;;;;;;;17.10;51.66;96424.19;10399371;28;20040;-36
2023/03/22 02:50:37;;;;;;;2.35;0.75;;;;;;;17.08;51.87;96410.72;10405000;28;20123;-34
2023/03/22 02:55:40;;;;;;;0.60;0.40;;;;;;;17.05;51.55;96403.09;10393879;28;20040;-34
2023/03/22 03:00:43;;;;;;;0.55;0.47;;;;;;;17.09;50.91;96415.75;10395713;28;20033;-33
2023/03/22 03:05:47;;;;;;;1.33;0.82;;;;;;;17.03;50.92;96403.13;10391991;28;20029;-34
2023/03/22 03:10:48;;;;;;;1.77;1.15;;;;;;;17.12;57.59;96417.44;10400788;28;20049;-37
2023/03/22 03:15:53;;;;;;;3.60;1.10;;;;;;;17.15;58.02;96420.00;10398064;28;20033;-33
2023/03/22 03:21:06;;;;;;;2.22;0.80;;;;;;;17.16;57.56;96416.63;10400902;28;20076;-34
2023/03/22 03:26:22;;;;;;;1.40;0.88;;;;;;;17.07;57.07;96407.31;10385645;28;20099;-33
2023/03/22 03:31:51;;;;;;;1.58;0.80;;;;;;;17.11;57.06;96418.28;10398699;28;20034;-33
2023/03/22 03:37:00;;;;;;;1.50;0.68;;;;;;;17.11;56.81;96420.81;10395355;28;20041;-34
2023/03/22 03:42:03;;;;;;;2.97;1.13;;;;;;;17.10;56.35;96426.72;10395059;28;20109;-33
2023/03/22 03:47:07;;;;;;;2.33;0.90;;;;;;;17.07;55.58;96421.69;10393364;28;20104;-34
2023/03/22 03:52:07;;;;;;;3.08;0.80;;;;;;;17.08;55.93;96428.41;10401561;28;20090;-33
2023/03/22 03:57:08;;;;;;;2.13;0.70;;;;;;;17.06;55.55;96420.00;10379884;28;20103;-34
2023/03/22 04:02:10;;;;;;;4.82;0.90;;;;;;;17.09;54.99;96425.03;10389924;28;20026;-34
2023/03/22 04:07:11;;;;;;;1.17;0.80;;;;;;;17.05;56.45;96424.19;10379800;28;20379;-34
2023/03/22 04:12:12;;;;;;;2.70;1.13;;;;;;;17.06;56.27;96425.03;10394169;28;20038;-33
2023/03/22 04:17:14;;;;;;;1.65;0.60;;;;;;;17.06;54.17;96425.03;10389165;28;20119;-33
2023/03/22 04:22:17;;;;;;;0.80;0.70;;;;;;;17.08;57.54;96423.34;10397496;28;20122;-34
2023/03/22 04:27:20;;;;;;;4.60;0.70;;;;;;;17.11;57.75;96421.69;10400274;28;20025;-34
2023/03/22 04:32:27;;;;;;;3.17;0.90;;;;;;;17.13;57.55;96416.59;10394649;28;20056;-33
2023/03/22 04:37:33;;;;;;;1.10;0.70;;;;;;;17.10;56.92;96406.50;10387999;28;20037;-33
2023/03/22 04:42:45;;;;;;;2.80;0.80;;;;;;;17.07;55.89;96399.75;10383639;28;20084;-34
2023/03/22 04:47:51;;;;;;;3.20;0.70;;;;;;;17.05;55.66;96396.38;10406401;28;20120;-31
2023/03/22 04:52:52;;;;;;;0.75;0.60;;;;;;;17.08;56.01;96393.84;10397615;28;20090;-33
2023/03/22 04:57:53;;;;;;;1.50;0.70;;;;;;;17.07;56.93;96391.31;10391793;28;20041;-33
2023/03/22 05:02:56;;;;;;;2.80;0.70;;;;;;;17.10;57.33;96396.38;10396792;28;20115;-33
2023/03/22 05:08:06;;;;;;;2.95;0.90;;;;;;;17.09;57.19;96394.69;10378916;28;20040;-33
2023/03/22 05:13:07;;;;;;;1.83;0.82;;;;;;;17.09;57.43;96392.97;10393661;28;20535;-36
2023/03/22 05:18:13;;;;;;;2.17;0.80;;;;;;;17.08;56.76;96395.53;10383758;28;20138;-34
2023/03/22 05:23:17;;;;;;;1.55;0.65;;;;;;;17.12;57.13;96389.63;10378296;28;20069;-33
2023/03/22 05:28:21;;;;;;;2.08;0.85;;;;;;;17.08;56.84;96377.84;10379584;28;20111;-35
2023/03/22 05:33:33;;;;;;;2.60;1.02;;;;;;;17.13;58.01;96388.78;10375289;28;20120;-37
2023/03/22 05:38:35;;;;;;;2.40;0.88;;;;;;;17.16;58.53;96391.31;10384902;28;20392;-33
2023/03/22 05:43:37;;;;;;;3.00;1.10;;;;;;;17.15;58.82;96384.59;10391744;28;20041;-33
2023/03/22 05:48:39;;;;;;;2.05;0.88;;;;;;;17.20;58.41;96393.00;10392970;28;20044;-34
2023/03/22 05:53:41;;;;;;;3.00;0.80;;;;;;;17.11;58.82;96387.94;10389655;28;20029;-34
2023/03/22 05:58:49;;;;;;;1.55;0.75;;;;;;;17.16;57.16;96387.09;10397024;28;20040;-34
2023/03/22 06:03:51;;;;;;;1.73;0.68;;;;;;;17.17;57.04;96393.00;10387123;28;20017;-33
2023/03/22 06:09:13;;;;;;;3.92;0.90;;;;;;;17.18;56.07;96390.47;10394052;28;20025;-33
2023/03/22 06:14:13;;;;;;;4.45;1.30;;;;;;;17.16;58.19;96386.25;10393133;28;20092;-33
2023/03/22 06:19:25;;;;;;;5.60;1.17;;;;;;;17.20;57.50;96393.00;10404703;28;20025;-34
2023/03/22 06:24:25;;;;;;;4.28;1.40;;;;;;;17.19;57.84;96391.31;10387160;28;20043;-35
2023/03/22 06:29:26;;;;;;;3.07;0.90;;;;;;;17.20;55.40;96393.00;10391929;28;20025;-34
2023/03/22 06:34:28;;;;;;;4.72;1.05;;;;;;;17.23;58.83;96398.91;10388675;28;20026;-34
2023/03/22 06:39:29;;;;;;;5.00;1.80;;;;;;;17.21;58.95;96402.25;10392112;28;20025;-33
2023/03/22 06:44:29;;;;;;;5.95;1.30;;;;;;;17.19;58.95;96401.44;10387328;28;20490;-33
2023/03/22 06:49:46;;;;;;;2.90;1.60;;;;;;;17.21;59.44;96394.69;10382935;28;20502;-35
2023/03/22 06:54:55;;;;;;;5.32;2.40;;;;;;;17.20;59.42;96386.25;10390325;28;20084;-33
2023/03/22 06:59:56;;;;;;;3.47;1.70;;;;;;;17.28;56.04;96391.31;10385617;28;20084;-33
2023/03/22 07:04:56;;;;;;;3.03;1.50;;;;;;;17.35;53.92;96393.00;10398472;28;20489;-35
2023/03/22 07:09:57;;;;;;;4.22;1.75;;;;;;;17.37;53.53;96386.28;10386567;28;20720;-34
2023/03/22 07:14:58;;;;;;;4.40;2.10;;;;;;;17.39;53.40;96389.63;10394725;28;20057;-34
2023/03/22 07:20:25;;;;;;;4.57;2.17;;;;;;;17.40;53.02;96389.63;10374113;28;20045;-34
2023/03/22 07:25:25;;;;;;;3.60;1.77;;;;;;;17.41;53.76;96390.50;10388720;28;20113;-34
2023/03/22 07:30:36;;;;;;;4.38;2.17;;;;;;;17.43;53.30;96396.38;10384359;28;20034;-33
2023/03/22 07:35:37;;;;;;;5.15;2.55;;;;;;;17.43;52.97;96396.38;10389925;28;20084;-34
2023/03/22 07:40:38;;;;;;;4.00;2.78;;;;;;;17.44;53.08;96398.06;10380401;28;20471;-34
2023/03/22 07:45:40;;;;;;;6.32;2.85;;;;;;;17.44;53.05;96398.06;10383019;28;20026;-33
2023/03/22 07:51:09;;;;;;;6.20;2.90;;;;;;;17.45;52.92;96397.22;10352117;28;20038;-33
2023/03/22 07:56:10;;;;;;;6.30;3.03;;;;;;;17.44;52.64;96393.00;10343017;28;1042376;-33
2023/03/22 08:01:10;;;;;;;8.65;4.45;;;;;;;17.46;54.18;96386.25;10377048;28;20030;-35
2023/03/22 08:06:45;;;;;;;9.63;3.88;;;;;;;17.52;54.24;96382.03;10370299;28;20045;-33
2023/03/22 08:11:45;;;;;;;6.95;3.80;;;;;;;17.49;53.36;96376.16;10391239;28;20037;-34
2023/03/22 08:16:46;;;;;;;4.73;3.47;;;;;;;17.48;53.39;96371.94;10391656;28;20087;-35
2023/03/22 08:21:46;;;;;;;6.03;4.03;;;;;;;17.46;53.47;96374.47;10396981;28;20041;-34
2023/03/22 08:27:00;;;;;;;5.80;3.25;;;;;;;17.49;52.71;96383.75;10380621;28;20021;-33
2023/03/22 08:32:17;;;;;;;9.30;4.28;;;;;;;17.44;52.81;96377.84;10382964;28;20068;-33
2023/03/22 08:37:19;;;;;;;8.38;4.13;;;;;;;17.47;52.54;96377.81;10387954;28;20030;-33
2023/03/22 08:42:20;;;;;;;10.40;4.88;;;;;;;17.49;52.25;96386.28;10378533;28;20073;-34
2023/03/22 08:47:20;;;;;;;9.65;5.55;;;;;;;17.50;52.65;96372.75;10382483;28;20065;-34
2023/03/22 08:52:25;;;;;;;11.70;6.22;;;;;;;17.51;52.11;96375.28;10380406;28;20029;-34
2023/03/22 08:57:49;;;;;;;11.35;6.63;;;;;;;17.54;52.01;96376.97;10372400;28;20462;-34
2023/03/22 09:03:08;;;;;;;10.73;6.53;;;;;;;17.52;52.38;96360.94;10371955;28;20109;-33
2023/03/22 09:08:09;;;;;;;15.93;7.85;;;;;;;17.50;53.43;96366.00;10385836;28;20033;-39
2023/03/22 09:13:15;;;;;;;20.58;12.02;;;;;;;17.50;57.32;96363.47;10373080;28;20022;-34
2023/03/22 09:18:23;;;;;;;28.33;14.63;;;;;;;17.59;59.45;96362.63;10387807;28;20083;-32
2023/03/22 09:23:25;;;;;;;17.00;9.63;;;;;;;17.56;55.03;96372.75;10375673;28;20083;-33
2023/03/22 09:28:27;;;;;;;13.05;8.30;;;;;;;17.54;53.98;96370.22;10384810;28;20025;-34
2023/03/22 09:33:30;;;;;;;19.75;9.52;;;;;;;17.56;53.50;96382.88;10370853;28;20030;-33
2023/03/22 09:38:32;;;;;;;14.00;8.70;;;;;;;17.54;53.44;96369.38;10393256;28;20538;-34
2023/03/22 09:43:37;;;;;;;17.75;10.15;;;;;;;17.49;53.21;96345.78;10384919;28;20061;-33
2023/03/22 09:48:41;;;;;;;16.88;9.60;;;;;;;17.52;53.79;96355.88;10381645;28;20034;-33
2023/03/22 09:53:41;;;;;;;19.85;10.07;;;;;;;17.48;54.15;96339.84;10388949;28;20037;-33
2023/03/22 09:59:25;;;;;;;17.43;9.97;;;;;;;17.46;54.03;96336.50;10378207;28;20087;-33
2023/03/22 10:05:02;;;;;;;15.43;10.25;;;;;;;17.43;54.22;96330.59;10292111;28;20117;-35
2023/03/22 10:10:16;;;;;;;14.20;9.98;;;;;;;17.45;54.42;96339.03;10368670;28;20037;-35
2023/03/22 10:15:25;;;;;;;19.92;9.82;;;;;;;17.43;54.37;96330.59;10378756;28;20121;-34
2023/03/22 10:20:41;;;;;;;17.05;9.95;;;;;;;17.41;54.58;96324.72;10369581;28;20127;-33
2023/03/22 10:25:46;;;;;;;17.73;10.60;;;;;;;17.42;57.78;96328.91;10387244;28;20029;-33
2023/03/22 10:30:53;;;;;;;20.40;12.10;;;;;;;17.38;58.23;96315.44;10385388;28;20038;-34
2023/03/22 10:35:54;;;;;;;19.85;10.93;;;;;;;17.38;57.64;96312.91;10380123;28;20049;-34
2023/03/22 10:40:57;;;;;;;17.35;10.60;;;;;;;17.37;58.13;96308.69;10371257;28;20030;-34
2023/03/22 10:46:03;;;;;;;15.30;9.27;;;;;;;17.36;57.77;96316.28;10386790;28;21378;-34
2023/03/22 10:51:05;;;;;;;16.50;10.77;;;;;;;17.36;57.61;96308.69;10387005;28;20119;-33
2023/03/22 10:56:12;;;;;;;17.00;10.13;;;;;;;17.34;58.10;96320.47;10373890;28;20026;-36
2023/03/22 11:01:15;;;;;;;16.77;9.65;;;;;;;17.34;57.67;96317.94;10371591;28;20096;-33
2023/03/22 11:06:21;;;;;;;16.55;10.23;;;;;;;17.34;57.86;96311.16;10384287;28;20133;-33
2023/03/22 11:11:23;;;;;;;13.75;9.52;;;;;;;17.35;57.71;96312.03;10389060;28;20029;-34
2023/03/22 11:16:24;;;;;;;14.65;9.43;;;;;;;17.35;57.58;96306.97;10375029;28;20033;-33
2023/03/22 11:21:30;;;;;;;15.25;9.00;;;;;;;17.36;57.47;96313.75;10389119;28;20465;-34
2023/03/22 11:26:36;;;;;;;14.00;8.87;;;;;;;17.36;56.87;96309.53;10377722;28;20033;-33
2023/03/22 11:31:57;;;;;;;15.93;8.93;;;;;;;17.34;57.23;96306.09;10376005;28;20397;-33
2023/03/22 11:37:00;;;;;;;12.73;8.55;;;;;;;17.34;57.97;96305.28;10378563;28;20113;-34
2023/03/22 11:42:05;;;;;;;15.55;8.63;;;;;;;17.36;57.53;96301.09;10376577;28;21445;-37
2023/03/22 11:47:07;;;;;;;12.50;8.55;;;;;;;17.34;56.94;96290.09;10375600;28;20540;-34
2023/03/22 11:52:14;;;;;;;10.63;7.22;;;;;;;17.34;55.97;96292.63;10395079;28;20029;-33
2023/03/22 11:57:26;;;;;;;13.77;8.27;;;;;;;17.38;56.62;96284.19;10386175;28;20041;-34
2023/03/22 12:02:42;;;;;;;12.77;8.02;;;;;;;17.39;56.13;96279.16;10385493;28;20485;-33
2023/03/22 12:07:42;;;;;;;18.23;9.02;;;;;;;17.41;57.18;96261.44;10372546;28;20447;-36
2023/03/22 12:12:58;;;;;;;18.90;8.82;;;;;;;17.42;57.28;96268.19;10373589;28;20034;-34
2023/03/22 12:18:15;;;;;;;17.05;9.98;;;;;;;17.39;58.12;96269.03;10387307;28;20069;-34
2023/03/22 12:23:21;;;;;;;22.02;10.15;;;;;;;17.37;57.89;96264.81;10383834;28;20042;-33
2023/03/22 12:28:30;;;;;;;14.65;9.13;;;;;;;17.34;57.76;96267.34;10375165;28;20048;-34
2023/03/22 12:33:44;;;;;;;12.52;8.07;;;;;;;17.31;56.35;96254.69;10386503;28;20033;-35
2023/03/22 12:38:56;;;;;;;13.35;8.50;;;;;;;17.35;57.96;96261.41;10384103;28;20091;-33
2023/03/22 12:44:07;;;;;;;13.82;7.88;;;;;;;17.35;57.77;96251.31;10372940;28;20033;-33
2023/03/22 12:49:30;;;;;;;12.88;8.35;;;;;;;17.36;58.17;96235.31;10385059;28;20037;-36
2023/03/22 12:54:30;;;;;;;14.50;7.90;;;;;;;17.35;57.40;96236.13;10381099;28;20038;-33
2023/03/22 12:59:31;;;;;;;12.15;7.57;;;;;;;17.36;57.77;96247.94;10381258;28;20481;-33
2023/03/22 13:04:34;;;;;;;11.13;7.32;;;;;;;17.35;57.71;96248.78;10380915;28;20029;-32
2023/03/22 13:09:35;;;;;;;11.93;8.05;;;;;;;17.36;57.90;96243.75;10380738;28;20037;-34
2023/03/22 13:14:47;;;;;;;13.90;7.57;;;;;;;17.36;57.75;96232.78;10377017;28;20038;-34
2023/03/22 13:20:06;;;;;;;11.38;7.43;;;;;;;17.35;57.92;96241.19;10373967;28;20041;-34
2023/03/22 13:25:11;;;;;;;13.20;7.18;;;;;;;17.35;57.99;96220.94;10382793;28;20209;-32
2023/03/22 13:30:20;;;;;;;17.83;8.15;;;;;;;17.35;58.07;96220.94;10367553;28;20029;-37
2023/03/22 13:35:22;;;;;;;12.30;8.23;;;;;;;17.34;58.07;96214.19;10379319;28;20084;-33
2023/03/22 13:40:45;;;;;;;11.85;7.38;;;;;;;17.28;58.16;96214.22;10383397;28;20029;-35
2023/03/22 13:46:31;;;;;;;11.95;7.25;;;;;;;17.33;58.05;96208.28;10374342;28;20698;-32
2023/03/22 13:51:32;;;;;;;11.70;7.47;;;;;;;17.33;58.09;96190.56;10385262;28;20049;-33
2023/03/22 13:56:51;;;;;;;13.95;7.60;;;;;;;17.35;58.11;96186.38;10378779;28;20057;-34
2023/03/22 14:01:57;;;;;;;9.68;6.65;;;;;;;17.41;58.17;96190.59;10379853;28;20414;-33
2023/03/22 14:07:05;;;;;;;11.98;6.70;;;;;;;17.39;57.75;96190.59;10386166;28;20026;-34
2023/03/22 14:12:17;;;;;;;9.07;6.38;;;;;;;17.37;57.58;96182.16;10371647;28;20041;-33
2023/03/22 14:17:37;;;;;;;11.52;7.47;;;;;;;17.34;57.76;96173.72;10383754;28;20424;-33
2023/03/22 14:23:08;;;;;;;9.40;6.00;;;;;;;17.32;57.21;96171.19;10390151;28;20042;-33
2023/03/22 14:28:09;;;;;;;8.98;6.13;;;;;;;17.34;57.76;96178.78;10388810;28;20148;-34
2023/03/22 14:33:20;;;;;;;9.50;5.70;;;;;;;17.35;57.85;96170.34;10376076;28;20505;-34
2023/03/22 14:38:26;;;;;;;8.88;6.15;;;;;;;17.32;57.75;96155.19;10383142;28;20683;-35
2023/03/22 14:43:27;;;;;;;;;;;;;;;17.32;57.93;96166.13;10389726;28;20037;-36
2023/03/22 14:48:32;;;;;;;9.63;5.97;;;;;;;17.32;56.09;96155.19;10378931;28;19979;-33
2023/03/22 14:53:37;;;;;;;8.93;4.88;;;;;;;17.28;57.11;96140.84;10375204;28;20581;-34
2023/03/22 14:58:38;;;;;;;7.05;4.85;;;;;;;17.30;56.08;96141.66;10384537;28;20525;-34
2023/03/22 15:03:39;;;;;;;11.00;5.57;;;;;;;17.30;58.32;96142.53;10382733;28;20124;-33
2023/03/22 15:08:44;;;;;;;8.07;5.40;;;;;;;17.35;58.65;96132.38;10379390;28;20606;-33
2023/03/22 15:13:46;;;;;;;9.43;6.50;;;;;;;17.40;58.70;96128.19;10368278;28;20528;-35
2023/03/22 15:18:50;;;;;;;8.75;5.85;;;;;;;17.36;57.94;96121.44;10368917;28;20482;-36
2023/03/22 15:23:53;;;;;;;11.13;6.72;;;;;;;17.34;57.47;96123.13;10376922;28;20045;-34
2023/03/22 15:29:04;;;;;;;7.35;5.63;;;;;;;17.32;56.80;96114.69;10389146;28;20116;-34
2023/03/22 15:34:05;;;;;;;8.68;5.95;;;;;;;17.31;57.89;96118.09;10368250;28;20467;-34
2023/03/22 15:39:22;;;;;;;6.78;4.65;;;;;;;17.32;55.25;96114.69;10381596;28;20026;-34
2023/03/22 15:44:22;;;;;;;;;;;;;;;17.32;54.48;96115.53;10372295;28;20030;-33
2023/03/22 15:49:36;;;;;;;7.27;5.33;;;;;;;17.30;53.98;96111.31;10373814;28;19913;-34
2023/03/22 15:54:53;;;;;;;6.15;4.22;;;;;;;17.33;55.21;96113.84;10374205;28;20121;-34
2023/03/22 16:00:10;;;;;;;6.75;4.70;;;;;;;17.33;54.05;96122.25;10375887;28;20038;-33
2023/03/22 16:05:11;;;;;;;6.45;4.45;;;;;;;17.32;54.36;96118.06;10378996;28;20033;-33
2023/03/22 16:10:17;;;;;;;10.43;5.55;;;;;;;17.34;53.85;96123.13;10388829;28;20038;-34
2023/03/22 16:15:28;;;;;;;11.93;5.85;;;;;;;17.36;58.32;96124.84;10373658;28;20029;-34
2023/03/22 16:20:32;;;;;;;6.97;4.63;;;;;;;17.36;58.81;96123.97;10388224;28;20079;-34
2023/03/22 16:25:33;;;;;;;9.15;4.72;;;;;;;17.40;58.60;96125.66;10380848;28;20037;-34
2023/03/22 16:30:34;;;;;;;8.00;4.50;;;;;;;17.34;55.89;96121.41;10371929;28;20073;-33
2023/03/22 16:35:35;;;;;;;8.63;4.07;;;;;;;17.31;55.03;96133.25;10388054;28;20686;-38
2023/03/22 16:40:35;;;;;;;6.90;4.70;;;;;;;17.33;55.44;96139.16;10382341;28;20521;-34
2023/03/22 16:45:36;;;;;;;5.18;3.72;;;;;;;17.29;54.81;96119.75;10379431;28;20030;-31
2023/03/22 16:50:40;;;;;;;6.60;4.50;;;;;;;17.31;54.32;96128.22;10368472;28;20037;-33
2023/03/22 16:55:42;;;;;;;5.70;4.03;;;;;;;17.33;53.92;96137.44;10389004;28;20501;-33
2023/03/22 17:00:42;;;;;;;9.30;3.80;;;;;;;17.38;55.49;96140.84;10390322;28;20520;-34
2023/03/22 17:05:43;;;;;;;9.02;3.00;;;;;;;17.39;51.22;96146.72;10368191;28;20084;-32
2023/03/22 17:10:45;;;;;;;9.68;3.72;;;;;;;17.38;54.30;96145.03;10374679;28;20135;-33
2023/03/22 17:15:48;;;;;;;7.75;2.92;;;;;;;17.38;56.19;96145.91;10390490;28;20417;-34
2023/03/22 17:20:49;;;;;;;7.53;2.97;;;;;;;17.37;56.29;96148.44;10371671;28;20042;-36
2023/03/22 17:25:51;;;;;;;6.40;2.92;;;;;;;17.37;56.25;96153.47;10382711;28;20034;-37
2023/03/22 17:30:51;;;;;;;5.22;2.88;;;;;;;17.38;56.78;96163.59;10376768;28;20498;-34
2023/03/22 17:35:52;;;;;;;3.97;2.80;;;;;;;17.40;56.90;96148.44;10380402;28;20045;-34
2023/03/22 17:40:53;;;;;;;4.38;2.80;;;;;;;17.38;56.30;96155.16;10376341;28;20033;-33
2023/03/22 17:45:53;;;;;;;5.20;2.90;;;;;;;17.37;56.53;96158.53;10370189;28;20111;-33
2023/03/22 17:50:54;;;;;;;5.45;3.03;;;;;;;17.35;55.26;96155.16;10384721;28;20061;-33
2023/03/22 17:55:55;;;;;;;12.38;3.15;;;;;;;17.38;54.81;96161.06;10381245;28;20088;-34
2023/03/22 18:00:55;;;;;;;8.48;2.47;;;;;;;17.39;56.86;96165.28;10402607;28;20057;-34
2023/03/22 18:05:56;;;;;;;7.38;2.75;;;;;;;17.40;54.69;96168.69;10385581;28;20104;-34
2023/03/22 18:10:56;;;;;;;7.17;2.30;;;;;;;17.42;56.88;96166.97;10382387;28;20042;-34
2023/03/22 18:15:57;;;;;;;5.47;2.53;;;;;;;17.43;54.14;96168.66;10392986;28;20309;-34
2023/03/22 18:21:11;;;;;;;11.77;4.18;;;;;;;17.44;56.18;96160.22;10393974;28;20083;-34
2023/03/22 18:26:12;;;;;;;14.98;3.63;;;;;;;17.44;55.97;96165.25;10379516;28;20050;-35
2023/03/22 18:31:13;;;;;;;10.77;3.13;;;;;;;17.44;54.36;96165.25;10376341;28;20032;-32
2023/03/22 18:36:13;;;;;;;13.52;4.13;;;;;;;17.48;57.99;96162.72;10385683;28;20044;-33
2023/03/22 18:41:13;;;;;;;10.93;3.40;;;;;;;17.53;57.51;96162.69;10379126;28;20056;-32
2023/03/22 18:46:16;;;;;;;6.75;3.03;;;;;;;17.52;58.09;96168.59;10377529;28;20032;-32
2023/03/22 18:51:18;;;;;;;8.45;3.45;;;;;;;17.52;57.15;96173.66;10383930;28;20308;-33
2023/03/22 18:56:19;;;;;;;12.50;3.10;;;;;;;17.51;57.93;96177.88;10376942;28;20037;-31
2023/03/22 19:01:19;;;;;;;8.50;2.65;;;;;;;17.51;57.85;96179.56;10385217;28;20029;-33
2023/03/22 19:06:20;;;;;;;7.17;2.90;;;;;;;17.52;57.88;96178.72;10386023;28;20501;-35
2023/03/22 19:11:21;;;;;;;8.38;2.83;;;;;;;17.50;58.12;96181.25;10388012;28;20281;-32
2023/03/22 19:16:22;;;;;;;9.05;2.63;;;;;;;17.51;57.80;96166.91;10389341;28;20046;-32
2023/03/22 19:21:23;;;;;;;6.95;2.25;;;;;;;17.51;58.18;96171.97;10380298;28;20048;-33
2023/03/22 19:26:25;;;;;;;8.80;2.80;;;;;;;17.51;58.11;96166.91;10382713;28;20404;-32
2023/03/22 19:31:30;;;;;;;3.50;1.48;;;;;;;17.51;57.75;96167.75;10385241;28;20386;-34
2023/03/22 19:36:30;;;;;;;6.63;2.40;;;;;;;17.52;57.56;96173.66;10383673;28;20603;-33
2023/03/22 19:41:31;;;;;;;5.85;2.60;;;;;;;17.52;57.67;96178.72;10381130;28;20040;-32
2023/03/22 19:46:31;;;;;;;5.13;2.17;;;;;;;17.52;55.21;96173.66;10375219;28;20037;-32
2023/03/22 19:51:32;;;;;;;5.53;2.47;;;;;;;17.55;58.25;96169.44;10346276;28;20386;-32
2023/03/22 19:56:33;;;;;;;3.75;1.83;;;;;;;17.53;58.62;96170.28;10375510;28;20396;-32
2023/03/22 20:01:35;;;;;;;4.55;2.40;;;;;;;17.51;58.63;96165.22;10370057;28;20780;-32
2023/03/22 20:06:35;;;;;;;8.35;2.20;;;;;;;17.53;56.55;96163.53;10353765;28;20041;-32
2023/03/22 20:11:36;;;;;;;11.70;2.30;;;;;;;17.54;57.84;96166.91;10378380;28;20049;-35
2023/03/22 20:16:36;;;;;;;7.78;2.17;;;;;;;17.50;58.20;96160.19;10383952;28;20292;-36
2023/03/22 20:21:37;;;;;;;6.03;2.70;;;;;;;17.51;58.33;96177.88;10379455;28;20033;-34
2023/03/22 20:26:37;;;;;;;5.13;1.73;;;;;;;17.51;58.42;96172.81;10381882;28;20284;-36
2023/03/22 20:31:38;;;;;;;2.80;1.70;;;;;;;17.50;56.15;96176.19;10360713;28;20429;-34
2023/03/22 20:36:38;;;;;;;3.00;1.83;;;;;;;17.41;56.94;96163.59;10385191;28;20305;-34
2023/03/22 20:41:39;;;;;;;4.45;1.98;;;;;;;17.48;57.55;96175.38;10385546;28;20163;-34
2023/03/22 20:46:39;;;;;;;4.03;1.80;;;;;;;17.47;54.97;96175.34;10376809;28;20033;-34
2023/03/22 20:51:40;;;;;;;5.22;1.60;;;;;;;17.46;53.58;96177.06;10372908;28;20301;-34
2023/03/22 20:56:40;;;;;;;5.13;2.00;;;;;;;17.49;58.75;96186.34;10385333;28;20041;-34
2023/03/22 21:01:40;;;;;;;3.78;1.88;;;;;;;17.46;59.20;96178.75;10394647;28;20042;-34
2023/03/22 21:06:42;;;;;;;3.45;2.35;;;;;;;17.49;58.75;96178.75;10389627;28;20037;-35
2023/03/22 21:11:43;;;;;;;4.80;2.17;;;;;;;17.42;56.14;96172.03;10385911;28;20516;-34
2023/03/22 21:16:43;;;;;;;3.13;1.83;;;;;;;17.45;54.39;96189.72;10381632;28;20037;-33
2023/03/22 21:21:43;;;;;;;3.00;1.50;;;;;;;17.46;54.03;96197.31;10376583;28;20304;-34
2023/03/22 21:26:44;;;;;;;2.72;1.60;;;;;;;17.45;53.78;96192.25;10385815;28;20284;-34
2023/03/22 21:31:44;;;;;;;2.88;1.80;;;;;;;17.44;53.90;96176.25;10376921;28;20037;-34
2023/03/22 21:36:47;;;;;;;3.07;1.40;;;;;;;17.40;53.50;96189.75;10380608;28;20037;-34
2023/03/22 21:41:47;;;;;;;3.65;1.65;;;;;;;17.43;53.22;96193.94;10385508;28;20049;-35
2023/03/22 21:46:48;;;;;;;3.40;1.17;;;;;;;17.44;53.89;96205.75;10378255;28;20037;-34
2023/03/22 21:51:48;;;;;;;3.87;1.87;;;;;;;17.46;53.02;96204.03;10385324;28;20506;-34
2023/03/22 21:56:49;;;;;;;3.00;1.80;;;;;;;17.43;54.40;96201.53;10388479;28;20030;-35
2023/03/22 22:01:51;;;;;;;6.10;2.30;;;;;;;17.43;54.98;96210.00;10379750;28;20033;-34
2023/03/22 22:06:52;;;;;;;3.22;1.30;;;;;;;17.45;58.94;96207.44;10376239;28;20034;-34
2023/03/22 22:11:53;;;;;;;5.18;1.90;;;;;;;17.51;59.70;96200.66;10383367;28;20063;-34
2023/03/22 22:16:53;;;;;;;3.05;1.60;;;;;;;17.50;59.72;96200.69;10373107;28;20129;-34
2023/03/22 22:21:56;;;;;;;3.73;1.10;;;;;;;17.45;54.49;96198.16;10385532;28;20038;-34
2023/03/22 22:26:57;;;;;;;3.83;1.42;;;;;;;17.44;53.70;96200.69;10394380;28;20279;-34
2023/03/22 22:31:57;;;;;;;2.28;1.38;;;;;;;17.44;53.26;96195.63;10386796;28;20049;-34
2023/03/22 22:36:58;;;;;;;2.00;1.47;;;;;;;17.43;53.19;96193.94;10384967;28;20029;-34
2023/03/22 22:41:58;;;;;;;1.67;1.10;;;;;;;17.42;52.99;96189.75;10397973;28;20779;-34
2023/03/22 22:46:58;;;;;;;3.80;1.60;;;;;;;17.37;52.90;96188.91;10401278;28;20043;-34
2023/03/22 22:51:59;;;;;;;2.47;1.53;;;;;;;17.38;52.81;96180.47;10390453;28;20038;-34
2023/03/22 22:56:59;;;;;;;3.30;1.30;;;;;;;17.39;52.79;96187.19;10394905;28;20087;-34
2023/03/22 23:02:00;;;;;;;2.38;1.75;;;;;;;17.34;52.61;96183.84;10380677;28;20300;-35
2023/03/22 23:07:00;;;;;;;2.80;1.20;;;;;;;17.38;52.44;96185.53;10389334;28;20501;-34
2023/03/22 23:12:01;;;;;;;3.38;1.58;;;;;;;17.37;52.58;96163.59;10397893;28;20506;-34
2023/03/22 23:17:02;;;;;;;3.60;1.50;;;;;;;17.44;59.65;96170.31;10395202;28;20045;-34
2023/03/22 23:22:05;;;;;;;8.98;2.25;;;;;;;17.48;60.37;96159.34;10389353;28;20300;-36
2023/03/22 23:27:05;;;;;;;2.17;1.30;;;;;;;17.50;60.73;96160.19;10397675;28;20041;-34
2023/03/22 23:32:06;;;;;;;2.80;1.30;;;;;;;17.41;56.32;96145.06;10388750;28;20033;-34
2023/03/22 23:37:09;;;;;;;1.58;1.10;;;;;;;17.39;54.63;96141.66;10396463;28;20048;-34